createdAt,value
2023-05-17T00:01:39.587Z,100348.81
2023-05-17T00:05:41.782Z,100350.16
2023-05-17T00:09:43.958Z,100343.66
2023-05-17T00:13:46.173Z,100346.06
2023-05-17T00:17:48.410Z,100341.28
2023-05-17T00:21:50.687Z,100338.50
2023-05-17T00:25:52.885Z,100322.41
2023-05-17T00:29:54.957Z,100331.66
2023-05-17T00:33:57.236Z,100336.22
2023-05-17T00:37:59.564Z,100344.50
2023-05-17T00:42:01.867Z,100339.34
2023-05-17T00:46:03.976Z,100344.16
2023-05-17T00:50:07.158Z,100334.88
2023-05-17T00:54:09.375Z,100334.66
2023-05-17T00:58:15.233Z,100342.00
2023-05-17T01:02:18.060Z,100329.25
2023-05-17T01:06:20.704Z,100331.16
2023-05-17T01:10:44.294Z,100338.25
2023-05-17T01:14:52.652Z,100358.22
2023-05-17T01:19:17.671Z,100347.13
2023-05-17T01:23:39.256Z,100338.50
2023-05-17T01:27:45.697Z,100343.66
2023-05-17T01:31:49.488Z,100323.09
2023-05-17T01:35:52.535Z,100341.00
2023-05-17T01:39:55.844Z,100340.19
2023-05-17T01:44:31.858Z,100336.56
2023-05-17T01:48:39.968Z,100328.63
2023-05-17T01:52:59.729Z,100334.75
2023-05-17T01:57:06.184Z,100338.25
2023-05-17T02:01:10.410Z,100334.16
2023-05-17T02:05:12.767Z,100340.31
2023-05-17T02:09:17.822Z,100341.38
2023-05-17T02:13:19.581Z,100345.22
2023-05-17T02:17:21.853Z,100348.72
2023-05-17T02:21:24.180Z,100342.44
2023-05-17T02:25:26.562Z,100346.91
2023-05-17T02:29:29.241Z,100345.78
2023-05-17T02:33:31.509Z,100342.19
2023-05-17T02:37:33.800Z,100355.16
2023-05-17T02:41:36.099Z,100348.31
2023-05-17T02:45:38.225Z,100360.47
2023-05-17T02:49:41.017Z,100355.75
2023-05-17T02:53:43.254Z,100366.22
2023-05-17T02:57:46.193Z,100376.88
2023-05-17T03:01:50.204Z,100365.63
2023-05-17T03:05:52.877Z,100354.06
2023-05-17T03:09:54.980Z,100374.47
2023-05-17T03:13:57.978Z,100394.56
2023-05-17T03:18:02.986Z,100406.06
2023-05-17T03:22:05.620Z,100389.03
2023-05-17T03:26:09.136Z,100379.31
2023-05-17T03:30:18.744Z,100384.22
2023-05-17T03:34:21.986Z,100386.81
2023-05-17T03:38:24.274Z,100388.97
2023-05-17T03:42:27.269Z,100389.09
2023-05-17T03:46:29.457Z,100393.75
2023-05-17T03:50:32.758Z,100397.25
2023-05-17T03:54:35.295Z,100404.94
2023-05-17T03:58:37.911Z,100391.28
2023-05-17T04:02:41.160Z,100388.50
2023-05-17T04:06:43.824Z,100387.22
2023-05-17T04:10:46.192Z,100386.56
2023-05-17T04:14:48.471Z,100390.88
2023-05-17T04:18:53.784Z,100394.47
2023-05-17T04:22:56.115Z,100403.00
2023-05-17T04:27:02.711Z,100404.66
2023-05-17T04:31:08.815Z,100409.97
2023-05-17T04:35:11.329Z,100410.41
2023-05-17T04:39:14.508Z,100418.44
2023-05-17T04:43:16.797Z,100422.91
2023-05-17T04:47:19.040Z,100431.66
2023-05-17T04:51:21.271Z,100432.09
2023-05-17T04:55:23.702Z,100427.56
2023-05-17T04:59:25.910Z,100426.84
2023-05-17T05:03:28.113Z,100435.94
2023-05-17T05:07:31.493Z,100436.47
2023-05-17T05:11:33.844Z,100432.97
2023-05-17T05:15:35.994Z,100430.72
2023-05-17T05:19:39.690Z,100432.63
2023-05-17T05:23:42.508Z,100430.53
2023-05-17T05:27:46.229Z,100430.38
2023-05-17T05:31:49.066Z,100431.94
2023-05-17T05:35:51.672Z,100439.97
2023-05-17T05:39:53.803Z,100441.91
2023-05-17T05:43:56.119Z,100426.28
2023-05-17T05:47:59.334Z,100426.00
2023-05-17T05:52:02.955Z,100427.28
2023-05-17T05:56:06.454Z,100420.72
2023-05-17T06:00:09.793Z,100413.03
2023-05-17T06:04:17.643Z,100410.28
2023-05-17T06:08:19.760Z,100414.44
2023-05-17T06:12:21.885Z,100420.78
2023-05-17T06:16:23.911Z,100426.50
2023-05-17T06:20:26.048Z,100422.16
2023-05-17T06:24:28.185Z,100431.81
2023-05-17T06:28:30.459Z,100434.00
2023-05-17T06:32:32.659Z,100433.59
2023-05-17T06:36:35.933Z,100446.59
2023-05-17T06:40:39.574Z,100452.53
2023-05-17T06:44:41.616Z,100457.25
2023-05-17T06:48:43.971Z,100456.84
2023-05-17T06:52:46.724Z,100459.25
2023-05-17T06:56:48.825Z,100471.66
2023-05-17T07:00:50.791Z,100480.97
2023-05-17T07:04:53.073Z,100485.81
2023-05-17T07:08:55.168Z,100494.69
2023-05-17T07:12:57.212Z,100496.06
2023-05-17T07:16:59.302Z,100495.88
2023-05-17T07:21:04.249Z,100498.69
2023-05-17T07:25:07.365Z,100502.34
2023-05-17T07:29:09.472Z,100506.28
2023-05-17T07:33:11.841Z,100496.78
2023-05-17T07:37:13.911Z,100479.34
2023-05-17T07:41:17.137Z,100467.88
2023-05-17T07:45:19.727Z,100467.72
2023-05-17T07:49:23.595Z,100487.91
2023-05-17T07:53:25.952Z,100482.00
2023-05-17T07:57:27.992Z,100486.09
2023-05-17T08:01:30.068Z,100490.09
2023-05-17T08:05:32.498Z,100490.22
2023-05-17T08:09:34.816Z,100490.16
2023-05-17T08:13:37.180Z,100487.50
2023-05-17T08:17:39.307Z,100486.81
2023-05-17T08:21:42.628Z,100498.59
2023-05-17T08:25:44.674Z,100494.94
2023-05-17T08:29:46.335Z,100504.53
2023-05-17T08:33:48.471Z,100497.59
2023-05-17T08:37:51.046Z,100513.88
2023-05-17T08:41:53.743Z,100518.63
2023-05-17T08:45:59.162Z,100525.94
2023-05-17T08:50:02.143Z,100531.91
2023-05-17T08:54:06.230Z,100538.88
2023-05-17T08:58:09.178Z,100536.19
2023-05-17T09:02:11.618Z,100535.16
2023-05-17T09:06:14.842Z,100550.34
2023-05-17T09:10:17.377Z,100542.41
2023-05-17T09:14:19.578Z,100534.47
2023-05-17T09:18:30.271Z,100533.66
2023-05-17T09:22:32.813Z,100533.16
2023-05-17T09:26:52.699Z,100541.31
2023-05-17T09:30:54.813Z,100553.88
2023-05-17T09:34:59.504Z,100548.28
2023-05-17T09:39:05.861Z,100555.59
2023-05-17T09:43:08.567Z,100553.56
2023-05-17T09:47:10.642Z,100558.50
2023-05-17T09:51:13.261Z,100553.41
2023-05-17T09:55:15.874Z,100560.81
2023-05-17T09:59:17.914Z,100560.09
2023-05-17T10:03:21.522Z,100575.81
2023-05-17T10:07:26.087Z,100564.75
2023-05-17T10:11:34.213Z,100594.50
2023-05-17T10:15:38.535Z,100592.06
2023-05-17T10:19:41.549Z,100596.41
2023-05-17T10:23:45.871Z,100586.78
2023-05-17T10:27:50.798Z,100591.53
2023-05-17T10:31:52.863Z,100598.06
2023-05-17T10:35:56.429Z,100590.78
2023-05-17T10:39:59.030Z,100599.44
2023-05-17T10:44:04.611Z,100609.78
2023-05-17T10:48:07.957Z,100608.84
2023-05-17T10:52:18.393Z,100610.31
2023-05-17T10:56:21.741Z,100601.56
2023-05-17T11:00:27.912Z,100606.41
2023-05-17T11:04:36.278Z,100608.19
2023-05-17T11:09:05.704Z,100614.50
2023-05-17T11:13:25.297Z,100613.47
2023-05-17T11:17:34.082Z,100609.00
2023-05-17T11:21:36.314Z,100614.69
2023-05-17T11:25:40.553Z,100622.16
2023-05-17T11:29:48.934Z,100628.81
2023-05-17T11:33:54.143Z,100638.94
2023-05-17T11:38:17.840Z,100644.00
2023-05-17T11:42:26.017Z,100631.06
2023-05-17T11:46:28.297Z,100643.72
2023-05-17T11:50:30.765Z,100637.19
2023-05-17T11:54:34.141Z,100640.88
2023-05-17T11:58:36.900Z,100632.66
2023-05-17T12:02:39.160Z,100643.63
2023-05-17T12:06:42.463Z,100643.19
2023-05-17T12:10:46.579Z,100641.84
2023-05-17T12:14:48.983Z,100653.53
2023-05-17T12:18:52.184Z,100657.06
2023-05-17T12:22:55.943Z,100677.66
2023-05-17T12:26:58.075Z,100671.19
2023-05-17T12:31:03.948Z,100684.78
2023-05-17T12:35:06.318Z,100670.25
2023-05-17T12:39:11.182Z,100674.50
2023-05-17T12:43:13.374Z,100663.31
2023-05-17T12:47:15.667Z,100660.50
2023-05-17T12:51:23.730Z,100665.09
2023-05-17T12:55:26.376Z,100659.97
2023-05-17T12:59:29.264Z,100665.41
2023-05-17T13:03:31.775Z,100673.63
2023-05-17T13:07:33.971Z,100673.00
2023-05-17T13:11:40.827Z,100675.41
2023-05-17T13:15:47.261Z,100671.59
2023-05-17T13:19:49.695Z,100668.34
2023-05-17T13:23:51.881Z,100673.22
2023-05-17T13:27:55.499Z,100684.75
2023-05-17T13:31:57.596Z,100681.38
2023-05-17T13:35:59.782Z,100689.28
2023-05-17T13:40:03.250Z,100690.38
2023-05-17T13:44:05.703Z,100691.44
2023-05-17T13:48:07.837Z,100699.88
2023-05-17T13:52:10.176Z,100705.78
2023-05-17T13:56:12.249Z,100719.81
2023-05-17T14:00:14.764Z,100715.91
2023-05-17T14:04:17.056Z,100718.03
2023-05-17T14:08:20.267Z,100711.91
2023-05-17T14:12:22.381Z,100720.25
2023-05-17T14:16:24.120Z,100714.88
2023-05-17T14:20:26.265Z,100717.59
2023-05-17T14:24:28.325Z,100720.25
2023-05-17T14:28:30.466Z,100725.00
2023-05-17T14:32:32.547Z,100723.09
2023-05-17T14:36:36.405Z,100746.25
2023-05-17T14:40:38.472Z,100749.72
2023-05-17T14:44:40.615Z,100760.47
2023-05-17T14:48:42.733Z,100762.91
2023-05-17T14:52:44.932Z,100764.41
2023-05-17T14:56:47.241Z,100768.41
2023-05-17T15:00:54.162Z,100775.78
2023-05-17T15:04:58.432Z,100781.81
2023-05-17T15:09:02.248Z,100798.47
2023-05-17T15:13:04.512Z,100799.84
2023-05-17T15:17:06.969Z,100811.34
2023-05-17T15:21:10.523Z,100806.13
2023-05-17T15:25:12.694Z,100801.66
2023-05-17T15:29:14.804Z,100809.34
2023-05-17T15:33:17.835Z,100812.22
2023-05-17T15:37:20.157Z,100819.69
2023-05-17T15:41:29.134Z,100815.00
2023-05-17T15:45:33.051Z,100812.31
2023-05-17T15:49:35.785Z,100810.16
2023-05-17T15:53:38.651Z,100821.03
2023-05-17T15:57:42.590Z,100821.53
2023-05-17T16:01:46.412Z,100833.28
2023-05-17T16:05:48.693Z,100837.72
2023-05-17T16:09:50.878Z,100836.47
2023-05-17T16:13:52.892Z,100841.53
2023-05-17T16:17:55.091Z,100842.47
2023-05-17T16:21:57.913Z,100843.75
2023-05-17T16:26:00.116Z,100845.50
2023-05-17T16:30:02.151Z,100852.34
2023-05-17T16:34:04.345Z,100845.59
2023-05-17T16:38:06.459Z,100850.03
2023-05-17T16:42:08.481Z,100865.53
2023-05-17T16:46:10.563Z,100858.66
2023-05-17T16:50:13.553Z,100866.31
2023-05-17T16:54:15.582Z,100869.00
2023-05-17T16:58:17.751Z,100871.09
2023-05-17T17:02:20.102Z,100864.41
2023-05-17T17:06:22.416Z,100872.06
2023-05-17T17:10:24.553Z,100871.38
2023-05-17T17:14:26.578Z,100877.88
2023-05-17T17:18:29.407Z,100871.94
2023-05-17T17:22:32.206Z,100880.59
2023-05-17T17:26:35.466Z,100885.19
2023-05-17T17:30:37.706Z,100882.25
2023-05-17T17:34:39.893Z,100882.81
2023-05-17T17:38:41.927Z,100884.72
2023-05-17T17:42:43.946Z,100894.69
2023-05-17T17:46:46.195Z,100905.06
2023-05-17T17:50:48.203Z,100903.19
2023-05-17T17:54:50.381Z,100909.78
2023-05-17T17:58:56.123Z,100913.34
2023-05-17T18:02:58.274Z,100918.00
2023-05-17T18:07:02.001Z,100917.41
2023-05-17T18:11:04.269Z,100923.25
2023-05-17T18:15:06.755Z,100911.41
2023-05-17T18:19:08.836Z,100926.84
2023-05-17T18:23:10.993Z,100941.81
2023-05-17T18:27:14.204Z,100957.28
2023-05-17T18:31:18.279Z,100951.03
2023-05-17T18:35:20.598Z,100957.56
2023-05-17T18:39:22.702Z,100961.59
2023-05-17T18:43:24.764Z,100968.38
2023-05-17T18:47:27.963Z,100985.63
2023-05-17T18:51:31.508Z,100997.78
2023-05-17T18:55:33.557Z,101009.34
2023-05-17T18:59:35.912Z,101014.72
2023-05-17T19:03:38.077Z,101018.66
2023-05-17T19:07:40.164Z,101017.00
2023-05-17T19:11:42.424Z,101022.72
2023-05-17T19:15:44.414Z,101024.53
2023-05-17T19:19:46.654Z,101024.91
2023-05-17T19:23:49.005Z,101016.41
2023-05-17T19:27:51.105Z,101018.84
2023-05-17T19:31:53.218Z,101014.81
2023-05-17T19:35:55.993Z,101015.47
2023-05-17T19:39:59.014Z,101006.56
2023-05-17T19:44:01.028Z,101013.75
2023-05-17T19:48:05.245Z,101021.66
2023-05-17T19:52:07.519Z,101015.94
2023-05-17T19:56:10.255Z,101011.72
2023-05-17T20:00:12.589Z,101016.00
2023-05-17T20:04:15.209Z,101013.72
2023-05-17T20:08:17.266Z,101012.72
2023-05-17T20:12:19.538Z,101026.16
2023-05-17T20:16:21.830Z,101023.31
2023-05-17T20:20:25.067Z,101024.63
2023-05-17T20:24:29.055Z,101018.56
2023-05-17T20:28:31.231Z,101026.16
2023-05-17T20:32:33.279Z,101035.06
2023-05-17T20:36:35.473Z,101034.59
2023-05-17T20:40:37.651Z,101042.66
2023-05-17T20:44:40.294Z,101043.22
2023-05-17T20:48:43.078Z,101050.47
2023-05-17T20:52:45.533Z,101059.34
2023-05-17T20:56:47.713Z,101063.56
2023-05-17T21:00:49.931Z,101072.53
2023-05-17T21:04:55.084Z,101083.84
2023-05-17T21:09:02.322Z,101093.03
2023-05-17T21:13:04.537Z,101100.63
2023-05-17T21:17:06.666Z,101111.88
2023-05-17T21:21:08.921Z,101112.97
2023-05-17T21:29:25.432Z,101116.38
2023-05-17T21:33:32.334Z,101126.44
2023-05-17T21:37:34.624Z,101129.28
2023-05-17T21:41:36.724Z,101137.69
2023-05-17T21:45:41.243Z,101138.63
2023-05-17T21:49:43.302Z,101147.09
2023-05-17T21:53:45.511Z,101146.91
2023-05-17T21:57:47.884Z,101145.38
2023-05-17T22:01:50.031Z,101146.91
2023-05-17T22:05:52.565Z,101149.47
2023-05-17T22:09:55.202Z,101148.72
2023-05-17T22:13:58.089Z,101155.28
2023-05-17T22:18:03.268Z,101158.22
2023-05-17T22:22:05.479Z,101163.78
2023-05-17T22:26:08.102Z,101170.75
2023-05-17T22:30:10.485Z,101174.81
2023-05-17T22:34:12.585Z,101168.72
2023-05-17T22:38:15.889Z,101172.53
2023-05-17T22:42:18.004Z,101178.63
2023-05-17T22:46:20.135Z,101177.00
2023-05-17T22:50:24.530Z,101185.63
2023-05-17T22:54:26.813Z,101198.47
2023-05-17T22:58:28.912Z,101205.41
2023-05-17T23:02:30.929Z,101222.22
2023-05-17T23:06:34.404Z,101232.31
2023-05-17T23:10:37.811Z,101222.00
2023-05-17T23:14:40.039Z,101226.66
2023-05-17T23:18:42.317Z,101238.31
2023-05-17T23:22:44.442Z,101248.22
2023-05-17T23:26:47.559Z,101253.94
2023-05-17T23:30:51.561Z,101268.56
2023-05-17T23:34:58.287Z,101261.72
2023-05-17T23:39:00.534Z,101260.16
2023-05-17T23:43:03.760Z,101255.56
2023-05-17T23:47:05.885Z,101255.91
2023-05-17T23:51:07.878Z,101284.00
2023-05-17T23:55:10.228Z,101271.34
2023-05-17T23:59:12.538Z,101288.41
